Terminal Aerodrome Forecast
Issued by NWS

Home | Current Version | Previous Version | Text Only | Print | Product List | Glossary On
Versions: 1 2 3 4 5 6 7 8 9 10 11 12 13 14 15 16 17 18 19 20 21 22 23 24 25 26 27 28
141
FTUS46 KMTR 291500 AAA
TAFSFO
TAF AMD
KSFO 291500Z 2915/3018 28008KT P6SM FEW200
     FM291900 29017G25KT P6SM FEW012 SCT150
     FM300400 29012KT P6SM SCT010 BKN150
     FM300800 29010KT 6SM -DZ BR BKN008 OVC010
     FM301300 30012KT P6SM SCT010 SCT150
     FM301700 32008KT P6SM FEW012=

USA.gov is the U.S. government's official web portal to all federal, state and local government web resources and services.